createdAt,value
2022-11-05T00:00:15.162Z,16.00
2022-11-05T00:04:55.875Z,14.48
2022-11-05T00:09:16.321Z,16.05
2022-11-05T00:13:36.689Z,16.02
2022-11-05T00:17:38.662Z,15.32
2022-11-05T00:21:59.037Z,12.90
2022-11-05T00:26:06.480Z,15.07
2022-11-05T00:30:09.622Z,15.40
2022-11-05T00:34:11.617Z,15.95
2022-11-05T00:38:13.692Z,15.63
2022-11-05T00:42:34.067Z,17.83
2022-11-05T00:46:36.116Z,14.32
2022-11-05T00:50:37.779Z,15.82
2022-11-05T00:54:39.786Z,16.65
2022-11-05T00:58:41.508Z,15.40
2022-11-05T01:02:43.657Z,16.63
2022-11-05T01:06:45.407Z,15.25
2022-11-05T01:10:56.610Z,15.43
2022-11-05T01:14:58.615Z,15.60
2022-11-05T01:19:01.987Z,15.40
2022-11-05T01:23:05.498Z,14.93
2022-11-05T01:27:10.753Z,16.27
2022-11-05T01:31:12.370Z,16.33
2022-11-05T01:35:16.939Z,16.35
2022-11-05T01:39:18.561Z,14.63
2022-11-05T01:43:23.132Z,16.08
2022-11-05T01:47:32.339Z,14.77
2022-11-05T01:51:34.950Z,15.65
2022-11-05T01:55:41.623Z,15.23
2022-11-05T01:59:48.501Z,15.80
2022-11-05T02:03:55.313Z,16.10
2022-11-05T02:07:57.740Z,16.60
2022-11-05T02:11:59.387Z,16.80
2022-11-05T02:16:29.833Z,16.20
2022-11-05T02:20:45.697Z,16.05
2022-11-05T02:24:59.585Z,15.82
2022-11-05T02:29:16.831Z,14.82
2022-11-05T02:33:41.803Z,17.40
2022-11-05T02:37:57.394Z,16.40
2022-11-05T02:42:30.128Z,16.40
2022-11-05T02:46:56.275Z,18.27
2022-11-05T02:51:10.437Z,18.52
2022-11-05T02:55:23.595Z,19.30
2022-11-05T02:59:25.574Z,18.48
2022-11-05T03:03:43.743Z,17.45
2022-11-05T03:07:56.176Z,18.58
2022-11-05T03:12:18.165Z,18.23
2022-11-05T03:16:40.328Z,19.17
2022-11-05T03:20:59.022Z,21.23
2022-11-05T03:25:08.149Z,19.70
2022-11-05T03:29:16.878Z,19.10
2022-11-05T03:33:23.858Z,19.20
2022-11-05T03:37:28.621Z,21.15
2022-11-05T03:41:32.945Z,18.90
2022-11-05T03:45:41.819Z,19.80
2022-11-05T03:49:50.609Z,20.20
2022-11-05T03:53:57.650Z,18.23
2022-11-05T03:57:59.698Z,20.98
2022-11-05T04:02:02.670Z,21.88
2022-11-05T04:06:24.955Z,25.98
2022-11-05T04:11:04.812Z,24.48
2022-11-05T04:15:07.924Z,22.67
2022-11-05T04:19:09.672Z,22.30
2022-11-05T04:23:30.502Z,20.70
2022-11-05T04:27:32.256Z,21.90
2022-11-05T04:31:34.134Z,21.50
2022-11-05T04:35:46.997Z,20.15
2022-11-05T04:39:49.101Z,20.75
2022-11-05T04:43:50.688Z,22.00
2022-11-05T04:47:52.681Z,21.77
2022-11-05T04:51:54.487Z,23.58
2022-11-05T04:56:09.579Z,22.80
2022-11-05T05:00:11.407Z,24.60
2022-11-05T05:04:14.568Z,25.75
2022-11-05T05:08:16.241Z,25.80
2022-11-05T05:12:18.309Z,27.40
2022-11-05T05:16:25.148Z,27.05
2022-11-05T05:20:45.656Z,29.38
2022-11-05T05:24:52.420Z,28.33
2022-11-05T05:28:54.904Z,28.45
2022-11-05T05:32:56.508Z,27.92
2022-11-05T05:36:58.388Z,28.17
2022-11-05T05:41:00.662Z,29.58
2022-11-05T05:45:02.563Z,28.73
2022-11-05T05:49:07.996Z,31.67
2022-11-05T05:53:14.257Z,27.83
2022-11-05T05:57:15.922Z,26.50
2022-11-05T06:01:19.551Z,28.33
2022-11-05T06:05:21.863Z,28.17
2022-11-05T06:09:23.802Z,29.75
2022-11-05T06:13:26.260Z,27.55
2022-11-05T06:17:28.292Z,27.95
2022-11-05T06:21:30.037Z,28.75
2022-11-05T06:25:34.912Z,27.95
2022-11-05T06:29:38.938Z,28.55
2022-11-05T06:33:41.310Z,31.38
2022-11-05T06:37:43.066Z,28.38
2022-11-05T06:42:12.131Z,28.20
2022-11-05T06:46:07.562Z,28.25
2022-11-05T06:50:09.654Z,31.23
2022-11-05T06:54:11.425Z,30.05
2022-11-05T06:58:14.554Z,27.30
2022-11-05T07:02:17.955Z,28.58
2022-11-05T07:06:20.348Z,29.92
2022-11-05T07:10:22.014Z,27.58
2022-11-05T07:14:23.934Z,29.85
2022-11-05T07:18:25.857Z,29.52
2022-11-05T07:22:27.783Z,26.08
2022-11-05T07:26:34.235Z,28.40
2022-11-05T07:30:37.205Z,27.73
2022-11-05T07:34:38.890Z,25.30
2022-11-05T07:38:40.772Z,26.38
2022-11-05T07:42:47.683Z,25.70
2022-11-05T07:46:50.734Z,26.42
2022-11-05T07:50:53.276Z,28.40
2022-11-05T07:54:55.292Z,28.50
2022-11-05T07:58:56.959Z,26.92
2022-11-05T08:03:07.817Z,27.45
2022-11-05T08:07:11.484Z,25.27
2022-11-05T08:11:13.662Z,27.42
2022-11-05T08:15:15.385Z,27.08
2022-11-05T08:19:17.336Z,29.17
2022-11-05T08:23:18.977Z,25.40
2022-11-05T08:27:20.876Z,28.05
2022-11-05T08:31:22.665Z,26.83
2022-11-05T08:35:26.873Z,26.75
2022-11-05T08:39:28.735Z,25.50
2022-11-05T08:43:30.744Z,26.58
2022-11-05T08:47:32.582Z,27.95
2022-11-05T08:51:34.528Z,26.48
2022-11-05T08:55:36.424Z,26.63
2022-11-05T08:59:38.413Z,25.83
2022-11-05T09:03:40.110Z,29.05
2022-11-05T09:07:42.167Z,27.13
2022-11-05T09:12:10.437Z,29.25
2022-11-05T09:16:06.601Z,27.17
2022-11-05T09:20:11.257Z,27.95
2022-11-05T09:24:13.539Z,27.50
2022-11-05T09:28:20.655Z,28.45
2022-11-05T09:32:23.286Z,29.95
2022-11-05T09:36:24.967Z,29.08
2022-11-05T09:40:31.576Z,28.13
2022-11-05T09:44:44.868Z,28.85
2022-11-05T09:48:53.812Z,28.65
2022-11-05T09:56:57.950Z,28.40
2022-11-05T10:01:00.392Z,29.17
2022-11-05T10:05:11.217Z,29.50
2022-11-05T10:09:40.140Z,35.45
2022-11-05T10:13:52.754Z,32.80
2022-11-05T10:17:59.674Z,45.60
2022-11-05T10:22:10.729Z,33.03
2022-11-05T10:26:15.992Z,40.20
2022-11-05T10:30:18.172Z,32.35
2022-11-05T10:34:22.942Z,30.23
2022-11-05T10:38:25.276Z,31.13
2022-11-05T10:42:36.633Z,31.05
2022-11-05T10:46:46.303Z,33.05
2022-11-05T10:50:48.509Z,33.92
2022-11-05T10:54:53.433Z,32.63
2022-11-05T10:58:58.427Z,34.92
2022-11-05T11:03:05.889Z,35.72
2022-11-05T11:07:21.709Z,34.65
2022-11-05T11:11:40.779Z,37.05
2022-11-05T11:15:42.434Z,36.92
2022-11-05T11:19:45.424Z,38.45
2022-11-05T11:24:04.843Z,37.35
2022-11-05T11:28:17.536Z,38.22
2022-11-05T11:32:21.219Z,38.58
2022-11-05T11:36:34.216Z,40.05
2022-11-05T11:40:38.169Z,38.80
2022-11-05T11:44:47.384Z,38.72
2022-11-05T11:48:49.902Z,39.78
2022-11-05T11:52:52.256Z,38.60
2022-11-05T11:56:53.915Z,39.95
2022-11-05T12:01:07.800Z,40.55
2022-11-05T12:05:18.800Z,42.53
2022-11-05T12:09:44.832Z,42.42
2022-11-05T12:14:09.719Z,43.10
2022-11-05T12:18:31.311Z,45.28
2022-11-05T12:22:54.402Z,46.25
2022-11-05T12:27:19.336Z,49.47
2022-11-05T12:31:35.908Z,48.22
2022-11-05T12:35:56.505Z,50.33
2022-11-05T12:40:34.425Z,52.40
2022-11-05T12:45:00.388Z,47.58
2022-11-05T12:49:07.923Z,48.80
2022-11-05T12:53:13.165Z,80.63
2022-11-05T12:57:16.497Z,63.78
2022-11-05T13:01:25.199Z,55.40
2022-11-05T13:05:41.778Z,57.25
2022-11-05T13:09:55.414Z,55.65
2022-11-05T13:14:06.053Z,58.13
2022-11-05T13:18:16.695Z,52.63
2022-11-05T13:22:38.796Z,58.05
2022-11-05T13:27:18.649Z,62.90
2022-11-05T13:31:27.350Z,53.53
2022-11-05T13:35:35.961Z,49.95
2022-11-05T13:39:49.230Z,51.78
2022-11-05T13:44:09.751Z,57.03
2022-11-05T13:48:29.988Z,57.08
2022-11-05T13:53:10.776Z,51.85
2022-11-05T13:57:39.522Z,56.63
2022-11-05T14:01:53.829Z,57.30
2022-11-05T14:06:07.789Z,52.78
2022-11-05T14:10:32.146Z,57.70
2022-11-05T14:14:44.605Z,53.63
2022-11-05T14:18:52.625Z,54.45
2022-11-05T14:23:23.275Z,56.57
2022-11-05T14:27:25.113Z,61.75
2022-11-05T14:31:54.481Z,54.83
2022-11-05T14:36:20.825Z,54.38
2022-11-05T14:40:22.592Z,57.28
2022-11-05T14:44:26.305Z,53.95
2022-11-05T14:48:37.549Z,59.35
2022-11-05T14:52:50.015Z,57.58
2022-11-05T14:56:56.728Z,57.53
2022-11-05T15:01:01.453Z,65.60
2022-11-05T15:05:31.234Z,64.03
2022-11-05T15:09:52.909Z,61.75
2022-11-05T15:13:54.790Z,64.35
2022-11-05T15:18:23.338Z,64.47
2022-11-05T15:22:30.783Z,68.57
2022-11-05T15:26:50.439Z,58.70
2022-11-05T15:31:19.544Z,60.95
2022-11-05T15:35:29.566Z,61.72
2022-11-05T15:39:33.131Z,60.38
2022-11-05T15:43:35.078Z,54.03
2022-11-05T15:47:36.805Z,56.03
2022-11-05T15:51:38.794Z,54.50
2022-11-05T15:55:54.571Z,54.47
2022-11-05T15:59:56.435Z,57.42
2022-11-05T16:04:15.686Z,61.00
2022-11-05T16:08:27.778Z,66.82
2022-11-05T16:12:34.987Z,64.00
2022-11-05T16:16:37.020Z,59.63
2022-11-05T16:20:38.842Z,66.85
2022-11-05T16:24:41.029Z,59.17
2022-11-05T16:28:50.351Z,64.30
2022-11-05T16:32:53.010Z,59.00
2022-11-05T16:36:57.071Z,61.67
2022-11-05T16:41:00.340Z,63.70
2022-11-05T16:45:02.006Z,66.93
2022-11-05T16:49:04.185Z,67.72
2022-11-05T16:53:06.272Z,65.38
2022-11-05T16:57:23.070Z,63.25
2022-11-05T17:01:25.233Z,66.72
2022-11-05T17:05:30.422Z,71.88
2022-11-05T17:09:32.047Z,73.43
2022-11-05T17:13:34.067Z,69.22
2022-11-05T17:17:35.705Z,75.72
2022-11-05T17:21:37.634Z,83.38
2022-11-05T17:25:40.915Z,74.30
2022-11-05T17:29:43.037Z,74.05
2022-11-05T17:33:44.747Z,76.70
2022-11-05T17:37:46.907Z,83.57
2022-11-05T17:41:48.896Z,81.68
2022-11-05T17:45:52.319Z,85.63
2022-11-05T17:49:53.974Z,75.75
2022-11-05T17:53:56.053Z,79.32
2022-11-05T17:57:57.709Z,76.35
2022-11-05T18:01:59.923Z,72.30
2022-11-05T18:06:02.958Z,76.63
2022-11-05T18:10:05.999Z,80.13
2022-11-05T18:14:08.510Z,86.55
2022-11-05T18:18:10.621Z,114.72
2022-11-05T18:22:12.487Z,149.20
2022-11-05T18:26:16.516Z,119.90
2022-11-05T18:30:18.799Z,103.15
2022-11-05T18:34:20.707Z,102.85
2022-11-05T18:38:22.581Z,114.03
2022-11-05T18:42:25.382Z,98.85
2022-11-05T18:46:55.848Z,89.72
2022-11-05T18:50:49.974Z,100.93
2022-11-05T18:54:51.775Z,98.53
2022-11-05T18:59:14.743Z,100.15
2022-11-05T19:03:15.797Z,98.93
2022-11-05T19:07:19.219Z,97.07
2022-11-05T19:11:23.333Z,77.05
2022-11-05T19:15:25.275Z,64.38
2022-11-05T19:19:27.591Z,73.95
2022-11-05T19:23:30.591Z,59.42
2022-11-05T19:27:32.420Z,53.42
2022-11-05T19:31:35.580Z,51.58
2022-11-05T19:35:41.545Z,53.53
2022-11-05T19:39:43.931Z,50.38
2022-11-05T19:43:45.903Z,46.63
2022-11-05T19:47:47.927Z,40.65
2022-11-05T19:51:49.749Z,39.15
2022-11-05T19:55:51.867Z,41.83
2022-11-05T19:59:53.509Z,39.45
2022-11-05T20:03:57.735Z,36.55
2022-11-05T20:07:59.840Z,40.10
2022-11-05T20:12:01.748Z,33.33
2022-11-05T20:16:04.056Z,31.88
2022-11-05T20:20:07.997Z,36.20
2022-11-05T20:24:11.746Z,33.05
2022-11-05T20:28:14.070Z,30.88
2022-11-05T20:32:15.929Z,30.10
2022-11-05T20:36:23.302Z,29.27
2022-11-05T20:40:25.029Z,30.10
2022-11-05T20:44:27.051Z,28.90
2022-11-05T20:48:33.021Z,30.75
2022-11-05T20:52:34.984Z,29.63
2022-11-05T20:56:36.880Z,29.40
2022-11-05T21:00:39.544Z,28.90
2022-11-05T21:04:41.223Z,32.83
2022-11-05T21:08:43.702Z,30.10
2022-11-05T21:12:45.369Z,33.65
2022-11-05T21:16:47.329Z,33.90
2022-11-05T21:20:49.486Z,32.78
2022-11-05T21:24:51.407Z,31.80
2022-11-05T21:28:53.039Z,31.25
2022-11-05T21:32:55.080Z,31.40
2022-11-05T21:36:56.749Z,31.95
2022-11-05T21:41:02.975Z,30.60
2022-11-05T21:45:05.485Z,30.55
2022-11-05T21:49:07.477Z,34.40
2022-11-05T21:53:32.424Z,33.90
2022-11-05T21:57:52.903Z,34.40
2022-11-05T22:02:01.371Z,31.98
2022-11-05T22:06:03.893Z,36.53
2022-11-05T22:10:13.295Z,35.38
2022-11-05T22:14:17.918Z,38.22
2022-11-05T22:18:19.554Z,33.72
2022-11-05T22:22:21.842Z,36.55
2022-11-05T22:26:23.530Z,36.08
2022-11-05T22:30:27.136Z,34.28
2022-11-05T22:34:28.832Z,37.97
2022-11-05T22:38:31.306Z,32.90
2022-11-05T22:42:33.037Z,34.45
2022-11-05T22:46:35.207Z,35.20
2022-11-05T22:50:36.807Z,36.17
2022-11-05T22:54:39.573Z,33.60
2022-11-05T22:58:42.182Z,32.72
2022-11-05T23:02:44.331Z,35.83
2022-11-05T23:07:04.786Z,29.92
2022-11-05T23:11:34.003Z,32.88
2022-11-05T23:15:54.434Z,30.20
2022-11-05T23:20:14.652Z,32.95
2022-11-05T23:24:16.436Z,31.42
2022-11-05T23:28:21.231Z,30.70
2022-11-05T23:32:25.501Z,32.47
2022-11-05T23:36:46.443Z,32.25
2022-11-05T23:41:06.862Z,31.80
2022-11-05T23:45:27.773Z,30.65
2022-11-05T23:49:29.577Z,32.10
2022-11-05T23:53:33.637Z,27.80
2022-11-05T23:57:35.548Z,31.23
